createdAt,value
2018-01-05T00:01:07.951Z,6.40
2018-01-05T00:03:35.422Z,4.57
2018-01-05T00:06:02.913Z,4.50
2018-01-05T00:08:30.376Z,4.40
2018-01-05T00:10:57.884Z,5.10
2018-01-05T00:13:25.425Z,5.23
2018-01-05T00:15:52.921Z,4.80
2018-01-05T00:18:20.441Z,5.40
2018-01-05T00:20:48.014Z,5.03
2018-01-05T00:23:15.514Z,7.13
2018-01-05T00:25:43.000Z,4.33
2018-01-05T00:28:10.462Z,4.80
2018-01-05T00:30:38.060Z,4.70
2018-01-05T00:33:05.565Z,4.00
2018-01-05T00:35:33.035Z,8.60
2018-01-05T00:38:00.533Z,5.37
2018-01-05T00:40:30.281Z,5.37
2018-01-05T00:42:58.348Z,4.87
2018-01-05T00:45:25.849Z,4.93
2018-01-05T00:47:53.319Z,9.87
2018-01-05T00:50:20.853Z,10.30
2018-01-05T00:52:48.301Z,7.83
2018-01-05T00:55:15.760Z,11.13
2018-01-05T00:57:43.235Z,8.20
2018-01-05T01:00:10.691Z,7.40
2018-01-05T01:02:38.195Z,10.10
2018-01-05T01:05:05.663Z,11.00
2018-01-05T01:07:33.104Z,7.77
2018-01-05T01:10:00.584Z,6.17
2018-01-05T01:12:29.718Z,6.13
2018-01-05T01:14:57.268Z,8.73
2018-01-05T01:17:24.727Z,5.90
2018-01-05T01:19:52.231Z,7.40
2018-01-05T01:22:19.769Z,5.33
2018-01-05T01:24:48.899Z,8.27
2018-01-05T01:27:17.616Z,8.93
2018-01-05T01:29:45.092Z,5.27
2018-01-05T01:32:12.547Z,5.50
2018-01-05T01:34:40.030Z,7.07
2018-01-05T01:37:07.512Z,6.13
2018-01-05T01:39:35.001Z,6.03
2018-01-05T01:42:02.462Z,7.20
2018-01-05T01:44:29.909Z,6.00
2018-01-05T01:46:57.387Z,7.10
2018-01-05T01:49:24.837Z,8.30
2018-01-05T01:51:52.326Z,7.53
2018-01-05T01:54:19.860Z,16.23
2018-01-05T01:56:47.335Z,11.40
2018-01-05T01:59:14.793Z,8.10
2018-01-05T02:01:42.280Z,7.80
2018-01-05T02:04:09.727Z,9.53
2018-01-05T02:06:37.351Z,11.03
2018-01-05T02:09:04.827Z,8.77
2018-01-05T02:11:32.328Z,9.20
2018-01-05T02:13:59.784Z,10.20
2018-01-05T02:16:27.239Z,8.60
2018-01-05T02:18:54.747Z,10.50
2018-01-05T02:21:22.190Z,10.37
2018-01-05T02:23:49.659Z,11.57
2018-01-05T02:26:17.132Z,9.40
2018-01-05T02:28:44.625Z,10.83
2018-01-05T02:31:12.095Z,11.03
2018-01-05T02:33:39.555Z,10.50
2018-01-05T02:36:07.015Z,13.23
2018-01-05T02:38:34.508Z,10.83
2018-01-05T02:41:02.000Z,10.20
2018-01-05T02:43:29.474Z,10.27
2018-01-05T02:45:56.938Z,11.30
2018-01-05T02:48:24.504Z,12.50
2018-01-05T02:50:52.027Z,10.33
2018-01-05T02:53:19.476Z,11.40
2018-01-05T02:55:46.934Z,13.27
2018-01-05T02:58:14.456Z,12.70
2018-01-05T03:00:42.428Z,14.97
2018-01-05T03:03:09.968Z,14.07
2018-01-05T03:05:37.424Z,14.40
2018-01-05T03:08:04.891Z,20.30
2018-01-05T03:10:32.549Z,13.70
2018-01-05T03:13:00.057Z,12.53
2018-01-05T03:15:27.550Z,12.97
2018-01-05T03:17:55.007Z,13.50
2018-01-05T03:20:22.464Z,15.23
2018-01-05T03:22:49.924Z,15.57
2018-01-05T03:25:17.411Z,12.90
2018-01-05T03:27:44.863Z,11.67
2018-01-05T03:30:12.334Z,10.67
2018-01-05T03:32:39.779Z,10.20
2018-01-05T03:35:07.215Z,10.17
2018-01-05T03:37:34.675Z,10.17
2018-01-05T03:40:02.151Z,9.90
2018-01-05T03:42:29.639Z,9.50
2018-01-05T03:44:57.125Z,10.00
2018-01-05T03:47:24.571Z,10.17
2018-01-05T03:49:52.031Z,11.30
2018-01-05T03:52:19.487Z,9.43
2018-01-05T03:54:47.865Z,9.43
2018-01-05T03:57:15.494Z,8.10
2018-01-05T03:59:42.930Z,8.27
2018-01-05T04:02:10.375Z,8.40
2018-01-05T04:04:37.854Z,8.40
2018-01-05T04:07:05.306Z,7.47
2018-01-05T04:09:32.746Z,9.30
2018-01-05T04:12:00.207Z,8.00
2018-01-05T04:14:27.668Z,8.70
2018-01-05T04:16:55.111Z,7.27
2018-01-05T04:19:22.567Z,4.63
2018-01-05T04:21:50.035Z,3.37
2018-01-05T04:24:17.674Z,1.27
2018-01-05T04:26:45.132Z,1.10
2018-01-05T04:29:12.587Z,0.90
2018-01-05T04:31:40.071Z,1.47
2018-01-05T04:34:07.524Z,0.80
2018-01-05T04:36:34.975Z,0.70
2018-01-05T04:39:02.448Z,1.20
2018-01-05T04:41:29.943Z,1.40
2018-01-05T04:43:57.395Z,0.80
2018-01-05T04:46:24.835Z,0.60
2018-01-05T04:48:52.297Z,0.80
2018-01-05T04:51:19.752Z,1.97
2018-01-05T04:53:47.227Z,1.57
2018-01-05T04:56:14.760Z,1.00
2018-01-05T04:58:42.204Z,1.17
2018-01-05T05:01:09.672Z,2.90
2018-01-05T05:03:37.145Z,1.63
2018-01-05T05:06:04.643Z,1.63
2018-01-05T05:08:32.196Z,1.27
2018-01-05T05:10:59.661Z,1.47
2018-01-05T05:13:27.171Z,3.83
2018-01-05T05:15:54.627Z,1.23
2018-01-05T05:18:22.088Z,2.90
2018-01-05T05:20:49.557Z,2.00
2018-01-05T05:23:17.020Z,3.90
2018-01-05T05:25:44.483Z,6.50
2018-01-05T05:28:11.958Z,3.63
2018-01-05T05:30:39.413Z,2.77
2018-01-05T05:33:06.855Z,2.40
2018-01-05T05:35:34.312Z,6.10
2018-01-05T05:38:01.756Z,3.40
2018-01-05T05:40:29.235Z,1.83
2018-01-05T05:42:56.687Z,2.93
2018-01-05T05:45:24.130Z,4.43
2018-01-05T05:47:51.588Z,3.93
2018-01-05T05:50:21.700Z,5.53
2018-01-05T05:52:49.348Z,6.93
2018-01-05T05:55:16.809Z,3.20
2018-01-05T05:57:44.282Z,5.37
2018-01-05T06:00:11.766Z,4.00
2018-01-05T06:02:39.215Z,4.60
2018-01-05T06:05:06.677Z,7.13
2018-01-05T06:07:34.135Z,2.80
2018-01-05T06:10:01.636Z,2.47
2018-01-05T06:12:29.110Z,5.20
2018-01-05T06:14:56.575Z,8.53
2018-01-05T06:17:24.065Z,5.33
2018-01-05T06:19:51.524Z,5.67
2018-01-05T06:22:19.011Z,7.73
2018-01-05T06:24:46.530Z,7.30
2018-01-05T06:27:14.004Z,4.00
2018-01-05T06:29:41.459Z,7.27
2018-01-05T06:32:08.906Z,5.00
2018-01-05T06:34:36.354Z,5.10
2018-01-05T06:37:03.823Z,3.97
2018-01-05T06:39:31.270Z,4.67
2018-01-05T06:41:58.741Z,4.70
2018-01-05T06:44:26.241Z,5.20
2018-01-05T06:46:53.692Z,6.77
2018-01-05T06:49:21.143Z,3.80
2018-01-05T06:51:48.738Z,5.60
2018-01-05T06:54:16.220Z,9.27
2018-01-05T06:56:43.718Z,7.77
2018-01-05T06:59:11.176Z,9.20
2018-01-05T07:01:38.640Z,4.40
2018-01-05T07:04:06.110Z,7.40
2018-01-05T07:06:33.574Z,8.53
2018-01-05T07:09:01.018Z,6.13
2018-01-05T07:11:28.476Z,5.40
2018-01-05T07:13:55.960Z,7.23
2018-01-05T07:16:23.477Z,8.00
2018-01-05T07:18:50.917Z,9.77
2018-01-05T07:21:18.481Z,8.93
2018-01-05T07:23:45.929Z,7.47
2018-01-05T07:26:13.390Z,9.80
2018-01-05T07:28:40.858Z,10.13
2018-01-05T07:31:08.321Z,12.03
2018-01-05T07:33:35.766Z,3.97
2018-01-05T07:36:03.224Z,11.73
2018-01-05T07:38:30.665Z,10.93
2018-01-05T07:40:58.173Z,9.90
2018-01-05T07:43:25.648Z,13.33
2018-01-05T07:45:53.113Z,11.13
2018-01-05T07:48:20.595Z,10.37
2018-01-05T07:50:48.071Z,5.50
2018-01-05T07:53:15.532Z,6.27
2018-01-05T07:55:43.005Z,12.03
2018-01-05T07:58:10.731Z,11.60
2018-01-05T08:00:38.188Z,6.97
2018-01-05T08:03:05.619Z,6.73
2018-01-05T08:05:33.092Z,11.83
2018-01-05T08:08:00.533Z,7.63
2018-01-05T08:10:28.151Z,13.23
2018-01-05T08:12:55.633Z,4.93
2018-01-05T08:15:23.138Z,10.43
2018-01-05T08:17:50.556Z,7.30
2018-01-05T08:20:18.041Z,8.97
2018-01-05T08:22:45.681Z,7.53
2018-01-05T08:25:13.192Z,13.93
2018-01-05T08:27:46.391Z,9.07
2018-01-05T08:30:13.876Z,9.67
2018-01-05T08:32:41.331Z,4.90
2018-01-05T08:35:08.783Z,5.07
2018-01-05T08:37:36.302Z,13.73
2018-01-05T08:40:03.826Z,5.33
2018-01-05T08:42:31.282Z,8.93
2018-01-05T08:44:58.744Z,8.60
2018-01-05T08:47:26.190Z,4.30
2018-01-05T08:49:53.655Z,7.57
2018-01-05T08:52:21.283Z,8.87
2018-01-05T08:54:48.771Z,12.63
2018-01-05T08:57:16.425Z,7.13
2018-01-05T08:59:43.932Z,7.33
2018-01-05T09:02:11.392Z,7.07
2018-01-05T09:04:38.914Z,4.63
2018-01-05T09:07:06.477Z,8.13
2018-01-05T09:09:33.973Z,5.50
2018-01-05T09:12:01.448Z,7.10
2018-01-05T09:14:29.658Z,5.63
2018-01-05T09:16:57.132Z,6.80
2018-01-05T09:19:24.603Z,7.43
2018-01-05T09:21:52.063Z,4.70
2018-01-05T09:24:19.527Z,3.10
2018-01-05T09:26:47.007Z,4.50
2018-01-05T09:29:14.504Z,9.27
2018-01-05T09:31:41.971Z,5.93
2018-01-05T09:34:09.430Z,7.40
2018-01-05T09:36:36.896Z,6.60
2018-01-05T09:39:04.404Z,6.63
2018-01-05T09:41:31.878Z,8.20
2018-01-05T09:43:59.387Z,8.10
2018-01-05T09:46:26.843Z,9.10
2018-01-05T09:48:54.303Z,9.30
2018-01-05T09:51:22.506Z,5.90
2018-01-05T09:53:49.983Z,11.43
2018-01-05T09:56:17.708Z,6.20
2018-01-05T09:58:45.249Z,5.57
2018-01-05T10:01:12.688Z,3.63
2018-01-05T10:03:40.146Z,5.37
2018-01-05T10:06:07.627Z,6.27
2018-01-05T10:08:35.308Z,6.40
2018-01-05T10:11:02.836Z,4.53
2018-01-05T10:13:30.372Z,7.47
2018-01-05T10:15:57.857Z,5.63
2018-01-05T10:18:25.695Z,5.37
2018-01-05T10:20:53.213Z,5.67
2018-01-05T10:23:20.651Z,3.57
2018-01-05T10:25:48.219Z,3.10
2018-01-05T10:28:15.801Z,4.47
2018-01-05T10:30:43.861Z,7.33
2018-01-05T10:33:11.307Z,5.60
2018-01-05T10:35:38.766Z,5.20
2018-01-05T10:38:06.304Z,5.40
2018-01-05T10:40:33.811Z,6.00
2018-01-05T10:43:01.300Z,4.43
2018-01-05T10:45:28.779Z,6.57
2018-01-05T10:47:56.266Z,3.20
2018-01-05T10:50:23.723Z,2.90
2018-01-05T10:52:51.204Z,2.87
2018-01-05T10:55:18.709Z,4.67
2018-01-05T10:57:46.180Z,13.33
2018-01-05T11:00:13.668Z,4.10
2018-01-05T11:02:41.113Z,7.20
2018-01-05T11:05:08.555Z,5.50
2018-01-05T11:07:36.037Z,4.17
2018-01-05T11:10:03.545Z,5.80
2018-01-05T11:12:31.025Z,4.53
2018-01-05T11:14:58.506Z,7.43
2018-01-05T11:17:25.961Z,4.00
2018-01-05T11:19:53.460Z,4.07
2018-01-05T11:22:20.996Z,6.90
2018-01-05T11:24:48.494Z,4.77
2018-01-05T11:27:15.980Z,6.50
2018-01-05T11:29:43.468Z,3.40
2018-01-05T11:32:11.032Z,7.87
2018-01-05T11:34:38.560Z,6.97
2018-01-05T11:37:06.049Z,2.33
2018-01-05T11:39:33.589Z,6.97
2018-01-05T11:42:01.055Z,5.73
2018-01-05T11:44:28.543Z,4.30
2018-01-05T11:46:56.155Z,4.00
2018-01-05T11:49:23.626Z,6.97
2018-01-05T11:51:51.096Z,6.40
2018-01-05T11:54:18.593Z,14.63
2018-01-05T11:56:46.087Z,4.33
2018-01-05T11:59:14.392Z,5.43
2018-01-05T12:01:41.965Z,9.03
2018-01-05T12:04:10.140Z,5.63
2018-01-05T12:06:37.699Z,5.50
2018-01-05T12:09:05.215Z,7.03
2018-01-05T12:11:32.723Z,4.47
2018-01-05T12:14:00.208Z,10.43
2018-01-05T12:16:27.846Z,4.53
2018-01-05T12:18:56.688Z,4.47
2018-01-05T12:21:24.153Z,5.00
2018-01-05T12:23:51.666Z,8.43
2018-01-05T12:26:19.196Z,5.10
2018-01-05T12:28:46.648Z,7.87
2018-01-05T12:31:14.115Z,11.40
2018-01-05T12:33:41.563Z,5.43
2018-01-05T12:36:09.024Z,4.77
2018-01-05T12:38:36.632Z,9.67
2018-01-05T12:41:04.214Z,5.70
2018-01-05T12:43:31.682Z,5.63
2018-01-05T12:45:59.143Z,5.17
2018-01-05T12:48:26.816Z,7.73
2018-01-05T12:50:54.279Z,8.47
2018-01-05T12:53:21.747Z,5.63
2018-01-05T12:55:49.251Z,6.50
2018-01-05T12:58:17.058Z,5.93
2018-01-05T13:00:44.650Z,6.07
2018-01-05T13:03:12.164Z,7.13
2018-01-05T13:05:39.696Z,6.10
2018-01-05T13:08:07.289Z,7.60
2018-01-05T13:10:34.941Z,10.00
2018-01-05T13:13:02.409Z,7.70
2018-01-05T13:15:29.864Z,9.87
2018-01-05T13:17:57.325Z,6.70
2018-01-05T13:20:24.793Z,6.97
2018-01-05T13:22:52.270Z,7.03
2018-01-05T13:25:19.751Z,8.33
2018-01-05T13:27:47.299Z,8.50
2018-01-05T13:30:14.800Z,7.87
2018-01-05T13:32:42.379Z,7.87
2018-01-05T13:35:09.857Z,8.00
2018-01-05T13:37:37.329Z,7.93
2018-01-05T13:40:04.786Z,20.57
2018-01-05T13:42:32.232Z,6.70
2018-01-05T13:44:59.719Z,7.00
2018-01-05T13:47:27.184Z,8.40
2018-01-05T13:49:54.695Z,7.27
2018-01-05T13:52:22.175Z,9.10
2018-01-05T13:54:49.847Z,10.87
2018-01-05T13:57:17.466Z,10.73
2018-01-05T13:59:45.785Z,8.60
2018-01-05T14:02:13.256Z,8.20
2018-01-05T14:04:40.725Z,6.43
2018-01-05T14:07:08.188Z,6.70
2018-01-05T14:09:35.657Z,9.70
2018-01-05T14:12:03.168Z,6.80
2018-01-05T14:14:30.758Z,7.07
2018-01-05T14:16:58.256Z,9.70
2018-01-05T14:19:25.752Z,9.00
2018-01-05T14:21:53.222Z,7.97
2018-01-05T14:24:20.707Z,6.97
2018-01-05T14:26:48.224Z,6.80
2018-01-05T14:29:15.684Z,6.83
2018-01-05T14:31:43.161Z,8.73
2018-01-05T14:34:10.776Z,9.33
2018-01-05T14:36:38.326Z,10.17
2018-01-05T14:39:05.828Z,11.97
2018-01-05T14:41:33.334Z,8.97
2018-01-05T14:44:00.817Z,10.77
2018-01-05T14:46:28.356Z,8.07
2018-01-05T14:48:55.842Z,12.70
2018-01-05T14:51:23.340Z,11.03
2018-01-05T14:53:50.845Z,9.30
2018-01-05T14:56:18.476Z,7.53
2018-01-05T14:58:45.972Z,7.63
2018-01-05T15:01:13.457Z,8.27
2018-01-05T15:03:40.972Z,7.27
2018-01-05T15:06:08.489Z,12.40
2018-01-05T15:08:36.105Z,9.70
2018-01-05T15:11:03.565Z,7.70
2018-01-05T15:13:31.080Z,11.33
2018-01-05T15:15:58.588Z,7.77
2018-01-05T15:18:26.168Z,7.70
2018-01-05T15:20:53.637Z,7.23
2018-01-05T15:23:21.159Z,9.03
2018-01-05T15:25:48.645Z,7.90
2018-01-05T15:28:16.708Z,8.17
2018-01-05T15:30:44.209Z,10.20
2018-01-05T15:33:11.664Z,16.60
2018-01-05T15:35:39.160Z,8.73
2018-01-05T15:38:06.645Z,8.60
2018-01-05T15:40:34.589Z,7.73
2018-01-05T15:43:02.113Z,7.27
2018-01-05T15:45:29.604Z,9.07
2018-01-05T15:47:57.091Z,12.87
2018-01-05T15:50:24.569Z,8.90
2018-01-05T15:52:52.051Z,12.63
2018-01-05T15:55:21.116Z,12.90
2018-01-05T15:57:48.579Z,9.23
2018-01-05T16:00:16.092Z,13.80
2018-01-05T16:02:43.586Z,12.57
2018-01-05T16:05:11.057Z,13.43
2018-01-05T16:07:38.613Z,9.53
2018-01-05T16:10:06.101Z,12.47
2018-01-05T16:12:34.242Z,11.60
2018-01-05T16:15:01.721Z,14.00
2018-01-05T16:17:29.225Z,14.40
2018-01-05T16:19:56.682Z,14.13
2018-01-05T16:22:24.157Z,14.20
2018-01-05T16:24:51.660Z,16.80
2018-01-05T16:27:19.158Z,21.30
2018-01-05T16:29:46.631Z,17.27
2018-01-05T16:32:14.106Z,16.37
2018-01-05T16:34:41.560Z,19.53
2018-01-05T16:37:09.048Z,15.77
2018-01-05T16:39:36.694Z,17.03
2018-01-05T16:42:04.274Z,17.47
2018-01-05T16:44:31.772Z,17.50
2018-01-05T16:46:59.266Z,17.50
2018-01-05T16:49:26.766Z,17.20
2018-01-05T16:51:54.307Z,20.60
2018-01-05T16:54:21.816Z,18.70
2018-01-05T16:56:49.283Z,15.03
2018-01-05T16:59:16.765Z,18.33
2018-01-05T17:01:44.284Z,17.87
2018-01-05T17:04:11.750Z,16.87
2018-01-05T17:06:39.304Z,18.80
2018-01-05T17:09:06.826Z,19.30
2018-01-05T17:11:35.168Z,16.80
2018-01-05T17:14:02.656Z,20.30
2018-01-05T17:16:30.107Z,24.07
2018-01-05T17:18:57.613Z,24.57
2018-01-05T17:21:25.093Z,22.47
2018-01-05T17:23:52.623Z,20.67
2018-01-05T17:26:20.149Z,25.03
2018-01-05T17:28:47.610Z,21.77
2018-01-05T17:31:15.073Z,30.73
2018-01-05T17:33:42.592Z,29.30
2018-01-05T17:36:10.041Z,24.77
2018-01-05T17:38:38.218Z,24.67
2018-01-05T17:41:05.695Z,25.97
2018-01-05T17:43:33.186Z,18.83
2018-01-05T17:46:00.716Z,23.13
2018-01-05T17:48:28.282Z,24.10
2018-01-05T17:50:55.761Z,28.97
2018-01-05T17:53:23.244Z,20.50
2018-01-05T17:55:50.724Z,22.17
2018-01-05T17:58:18.188Z,24.30
2018-01-05T18:00:46.748Z,20.70
2018-01-05T18:03:14.295Z,19.93
2018-01-05T18:05:41.887Z,21.70
2018-01-05T18:08:09.390Z,20.27
2018-01-05T18:10:36.949Z,19.93
2018-01-05T18:13:04.482Z,19.00
2018-01-05T18:15:31.980Z,18.33
2018-01-05T18:17:59.492Z,22.63
2018-01-05T18:20:26.989Z,18.67
2018-01-05T18:22:54.463Z,24.60
2018-01-05T18:25:21.972Z,21.67
2018-01-05T18:27:49.426Z,22.63
2018-01-05T18:30:16.884Z,20.93
2018-01-05T18:32:44.487Z,19.80
2018-01-05T18:35:12.013Z,22.47
2018-01-05T18:37:39.543Z,18.07
2018-01-05T18:40:07.005Z,23.13
2018-01-05T18:42:34.499Z,19.97
2018-01-05T18:45:02.018Z,21.03
2018-01-05T18:47:29.717Z,21.80
2018-01-05T18:49:58.155Z,22.13
2018-01-05T18:52:25.662Z,29.43
2018-01-05T18:54:53.223Z,21.27
2018-01-05T18:57:20.851Z,23.80
2018-01-05T18:59:48.341Z,25.00
2018-01-05T19:02:15.914Z,27.37
2018-01-05T19:04:43.468Z,28.60
2018-01-05T19:07:10.950Z,30.13
2018-01-05T19:09:38.449Z,32.33
2018-01-05T19:12:06.006Z,27.47
2018-01-05T19:14:34.636Z,25.57
2018-01-05T19:17:02.171Z,24.17
2018-01-05T19:19:29.728Z,27.40
2018-01-05T19:21:57.212Z,27.57
2018-01-05T19:24:24.738Z,25.00
2018-01-05T19:26:52.309Z,24.77
2018-01-05T19:29:19.851Z,35.77
2018-01-05T19:31:47.495Z,25.67
2018-01-05T19:34:15.487Z,28.20
2018-01-05T19:36:43.076Z,27.30
2018-01-05T19:39:11.440Z,28.70
2018-01-05T19:41:38.951Z,30.90
2018-01-05T19:44:06.497Z,28.50
2018-01-05T19:46:34.120Z,37.07
2018-01-05T19:49:01.659Z,34.73
2018-01-05T19:51:29.297Z,32.50
2018-01-05T19:53:57.737Z,31.07
2018-01-05T19:56:25.271Z,29.67
2018-01-05T19:58:52.773Z,35.30
2018-01-05T20:01:20.309Z,33.27
2018-01-05T20:03:47.810Z,29.80
2018-01-05T20:06:15.352Z,31.43
2018-01-05T20:08:42.843Z,29.17
2018-01-05T20:11:10.332Z,34.03
2018-01-05T20:13:37.806Z,34.73
2018-01-05T20:16:05.287Z,35.20
2018-01-05T20:18:32.807Z,37.03
2018-01-05T20:21:00.371Z,44.20
2018-01-05T20:23:27.856Z,35.57
2018-01-05T20:25:55.343Z,43.70
2018-01-05T20:28:28.705Z,38.47
2018-01-05T20:30:56.264Z,37.23
2018-01-05T20:33:24.610Z,38.40
2018-01-05T20:35:52.571Z,36.97
2018-01-05T20:38:20.382Z,37.77
2018-01-05T20:40:48.012Z,35.40
2018-01-05T20:43:15.645Z,35.30
2018-01-05T20:45:43.457Z,32.40
2018-01-05T20:48:11.117Z,36.60
2018-01-05T20:50:38.847Z,36.87
2018-01-05T20:53:06.610Z,37.73
2018-01-05T20:55:34.251Z,37.10
2018-01-05T20:58:01.910Z,51.27
2018-01-05T21:00:29.619Z,41.40
2018-01-05T21:02:57.355Z,50.37
2018-01-05T21:05:25.096Z,43.00
2018-01-05T21:07:52.674Z,47.40
2018-01-05T21:10:20.179Z,40.57
2018-01-05T21:12:48.116Z,46.00
2018-01-05T21:15:15.704Z,44.63
2018-01-05T21:17:43.174Z,41.07
2018-01-05T21:20:10.670Z,42.23
2018-01-05T21:22:38.220Z,53.80
2018-01-05T21:25:06.809Z,41.97
2018-01-05T21:27:34.284Z,42.67
2018-01-05T21:30:01.777Z,47.93
2018-01-05T21:32:29.263Z,46.77
2018-01-05T21:34:56.779Z,44.53
2018-01-05T21:37:24.256Z,48.97
2018-01-05T21:39:51.730Z,41.60
2018-01-05T21:42:19.228Z,44.93
2018-01-05T21:44:46.689Z,47.47
2018-01-05T21:47:14.173Z,52.30
2018-01-05T21:49:41.673Z,46.13
2018-01-05T21:52:09.164Z,53.13
2018-01-05T21:54:36.648Z,62.83
2018-01-05T21:57:04.212Z,49.77
2018-01-05T21:59:31.713Z,56.87
2018-01-05T22:01:59.428Z,60.63
2018-01-05T22:04:26.910Z,53.07
2018-01-05T22:06:55.072Z,50.13
2018-01-05T22:09:22.544Z,49.73
2018-01-05T22:11:50.176Z,47.07
2018-01-05T22:14:17.744Z,49.70
2018-01-05T22:16:45.233Z,50.07
2018-01-05T22:19:12.692Z,55.07
2018-01-05T22:21:40.172Z,53.27
2018-01-05T22:24:07.686Z,49.40
2018-01-05T22:26:35.306Z,47.50
2018-01-05T22:29:02.812Z,48.90
2018-01-05T22:31:30.282Z,51.47
2018-01-05T22:33:57.762Z,54.60
2018-01-05T22:36:25.242Z,54.10
2018-01-05T22:38:52.725Z,57.77
2018-01-05T22:41:20.200Z,63.60
2018-01-05T22:43:47.743Z,64.10
2018-01-05T22:46:15.537Z,60.93
2018-01-05T22:48:43.001Z,58.80
2018-01-05T22:51:10.573Z,61.70
2018-01-05T22:53:38.031Z,54.77
2018-01-05T22:56:05.557Z,60.03
2018-01-05T22:58:33.052Z,61.77
2018-01-05T23:01:00.534Z,59.63
2018-01-05T23:03:28.026Z,64.20
2018-01-05T23:05:55.713Z,67.97
2018-01-05T23:08:23.176Z,71.30
2018-01-05T23:10:50.625Z,69.90
2018-01-05T23:13:18.105Z,67.50
2018-01-05T23:15:45.641Z,87.10
2018-01-05T23:18:13.312Z,69.13
2018-01-05T23:20:40.793Z,69.73
2018-01-05T23:23:08.283Z,67.20
2018-01-05T23:25:35.769Z,66.50
2018-01-05T23:28:03.248Z,75.83
2018-01-05T23:30:30.716Z,71.17
2018-01-05T23:32:58.204Z,77.00
2018-01-05T23:35:25.678Z,78.30
2018-01-05T23:37:53.169Z,75.63
2018-01-05T23:40:20.694Z,68.20
2018-01-05T23:42:48.153Z,71.67
2018-01-05T23:45:15.739Z,74.23
2018-01-05T23:47:43.308Z,68.20
2018-01-05T23:50:10.783Z,63.90
2018-01-05T23:52:38.259Z,70.93
2018-01-05T23:55:05.749Z,74.50
2018-01-05T23:57:33.286Z,66.93
